WetterOnline ( http://www.wetteronline.de )

Wetter aktuell Hamburg

Aktuelles Wetter: Hamburg/Fuhlsbüttel (15m)

6-stündlich | Neueste Meldungen
Ortszeit Temperatur Wetter
Mo, 22.01. 19:00 1.3° C bedeckt
Mo, 22.01. 13:00 0.6° C Schneefall
Mo, 22.01. 7:00 0.1° C leichter Schneefall
Mo, 22.01. 1:00 -0.5° C bedeckt
So, 21.01. 19:00 -0.3° C bedeckt
So, 21.01. 13:00 -0.8° C Nebel
So, 21.01. 7:00 -1.6° C Nebelschwaden
So, 21.01. 1:00 -0.7° C wolkig
Ortszeit Temperatur Wetter
Mo, 22.01. 19:20 1° C bedeckt, Dunst
Mo, 22.01. 19:00 1.3° C bedeckt
Mo, 22.01. 18:50 1.3° C Sprühregen
Mo, 22.01. 18:40 1.3° C -
Mo, 22.01. 18:30 1.2° C -
Mo, 22.01. 18:20 1.2° C Sprühregen
Mo, 22.01. 18:00 1.2° C bedeckt
Mo, 22.01. 17:30 1.1° C -
Mo, 22.01. 17:00 1.2° C bedeckt
Mo, 22.01. 16:30 1.1° C -
Mo, 22.01. 16:00 1.0° C bedeckt
Ortszeit Relative Feuchte Sichtweite
Mo, 22.01. 19:00 99% 5.0 km
Mo, 22.01. 13:00 96% 2.5 km
Mo, 22.01. 7:00 94% 5.0 km
Mo, 22.01. 1:00 96% 6 km
So, 21.01. 19:00 100% 3.0 km
So, 21.01. 13:00 100% 0.3 km
So, 21.01. 7:00 100% 3.0 km
So, 21.01. 1:00 100% 5.0 km
Ortszeit Relative Feuchte Sichtweite
Mo, 22.01. 19:20 100% 5.0 km
Mo, 22.01. 19:00 99% 5.0 km
Mo, 22.01. 18:50 99% -
Mo, 22.01. 18:40 99% -
Mo, 22.01. 18:30 98% 2.7 km
Mo, 22.01. 18:20 98% -
Mo, 22.01. 18:00 97% 6 km
Mo, 22.01. 17:30 96% 3.6 km
Mo, 22.01. 17:00 96% 6 km
Mo, 22.01. 16:30 96% 3.5 km
Mo, 22.01. 16:00 96% 5.0 km
Ortszeit Niederschlagsmenge Niederschlagsart
Mo, 22.01. 19:00 0.4 l/m2 in 12 Std. Schnee
Mo, 22.01. 13:00 0.4 l/m2 in 6 Std. Schnee
Mo, 22.01. 7:00 0.1 l/m2 in 12 Std. -
Mo, 22.01. 1:00 0.0 l/m2 in 6 Std. -
So, 21.01. 19:00 0.0 l/m2 in 12 Std. Nebel
So, 21.01. 13:00 0.0 l/m2 in 6 Std. Nebel
So, 21.01. 7:00 0.0 l/m2 in 12 Std. -
So, 21.01. 1:00 0.0 l/m2 in 6 Std. -
Ortszeit Niederschlagsmenge Niederschlagsart
Mo, 22.01. 19:20 keine Meldung -
Mo, 22.01. 19:00 0.1 l/m2 in 1 Std. Schnee
Mo, 22.01. 18:50 keine Meldung -
Mo, 22.01. 18:40 keine Meldung -
Mo, 22.01. 18:30 0.1 l/m2 in 1 Std. -
Mo, 22.01. 18:20 keine Meldung -
Mo, 22.01. 18:00 0.0 l/m2 in 1 Std. -
Mo, 22.01. 17:30 0.0 l/m2 in 1 Std. -
Mo, 22.01. 17:00 0.0 l/m2 in 1 Std. -
Mo, 22.01. 16:30 0.0 l/m2 in 1 Std. -
Mo, 22.01. 16:00 0.1 l/m2 in 1 Std. Schnee
Ortszeit Stärke Spitze Richtung
km/h Bft. km/h Grad Sektor
Mo, 22.01. 19:00 7 2 29 170° S
Mo, 22.01. 13:00 18 3 36 130° SO
Mo, 22.01. 7:00 22 4 36 120° SO
Mo, 22.01. 1:00 22 4 29 140° SO
So, 21.01. 19:00 11 2 17 200° S
So, 21.01. 13:00 6 1 11 90° O
So, 21.01. 7:00 7 2 11 70° O
So, 21.01. 1:00 6 1 19 80° O
Ortszeit Stärke Spitze Richtung
km/h Bft. km/h Grad Sektor
Mo, 22.01. 19:20 4 1 - uml. uml.
Mo, 22.01. 19:00 7 2 14 170° S
Mo, 22.01. 18:50 7 2 - 170° S
Mo, 22.01. 18:40 7 2 - 160° S
Mo, 22.01. 18:30 9 2 13 170° S
Mo, 22.01. 18:20 9 2 - 170° S
Mo, 22.01. 18:00 11 2 14 140° SO
Mo, 22.01. 17:30 9 2 15 150° SO
Mo, 22.01. 17:00 11 2 22 140° SO
Mo, 22.01. 16:30 13 3 22 140° SO
Mo, 22.01. 16:00 13 3 22 140° SO
Ortszeit Untergrenze Bedeckung Gattung
total tief tief mittel hoch
Mo, 22.01. 19:00 120 m 8/8 8/8 St - -
Mo, 22.01. 13:00 180 m 8/8 7/8 St - -
Mo, 22.01. 7:00 180 m 8/8 8/8 St - -
Mo, 22.01. 1:00 120 m 8/8 8/8 St - -
So, 21.01. 19:00 30 m 8/8 8/8 St - -
So, 21.01. 13:00 - 8/8 - - - -
So, 21.01. 7:00 60 m 4/8 4/8 Sc - -
So, 21.01. 1:00 1800 m 7/8 1/8 Sc Ac Ci
Ortszeit Bedeckungsgrad in Achtel und Wolkenuntergrenze
Mo, 22.01. 19:20 1-2(90m) 8(120m)
Mo, 22.01. 19:00 5(120m) 8(150m)
Mo, 22.01. 18:50 -
Mo, 22.01. 18:40 -
Mo, 22.01. 18:30 -
Mo, 22.01. 18:20 -
Mo, 22.01. 18:00 5(120m) 8(150m)
Mo, 22.01. 17:30 -
Mo, 22.01. 17:00 5(150m) 7(180m)
Mo, 22.01. 16:30 -
Mo, 22.01. 16:00 7(180m)
Ortszeit Luftdruck NN (hPa) Tendenz (hPa in 3 Std.)
Mo, 22.01. 19:00 1010 + 2,8
Mo, 22.01. 13:00 1007 - 1,2
Mo, 22.01. 7:00 1009 - 2,3
Mo, 22.01. 1:00 1014 - 1,6
So, 21.01. 19:00 1017 + 0,6
So, 21.01. 13:00 1015 + 1,9
So, 21.01. 7:00 1009 + 2,7
So, 21.01. 1:00 1004 + 1,4
Ortszeit Luftdruck NN (hPa) Tendenz (hPa in 3 Std.)
Mo, 22.01. 19:20 1009 keine Meldung
Mo, 22.01. 19:00 1010 + 2,8
Mo, 22.01. 18:50 1010 keine Meldung
Mo, 22.01. 18:40 1010 keine Meldung
Mo, 22.01. 18:30 1009 + 2,4
Mo, 22.01. 18:20 1009 keine Meldung
Mo, 22.01. 18:00 1009 + 2,3
Mo, 22.01. 17:30 1008 + 2,0
Mo, 22.01. 17:00 1008 + 1,5
Mo, 22.01. 16:30 1007 + 0,9
Mo, 22.01. 16:00 1007 + 0,4
Ortszeit Schneehöhe (cm)
Mo, 22.01. 19:00 -
Mo, 22.01. 13:00 1
Mo, 22.01. 7:00 -
Mo, 22.01. 1:00 -
So, 21.01. 19:00 -
So, 21.01. 13:00 -
So, 21.01. 7:00 1
So, 21.01. 1:00 1
Ortszeit Schneehöhe (cm)
Mo, 22.01. 19:20 -
Mo, 22.01. 19:00 -
Mo, 22.01. 18:50 -
Mo, 22.01. 18:40 -
Mo, 22.01. 18:30 -
Mo, 22.01. 18:20 -
Mo, 22.01. 18:00 -
Mo, 22.01. 17:30 -
Mo, 22.01. 17:00 -
Mo, 22.01. 16:30 -
Mo, 22.01. 16:00 -
Link zu dieser Seite / Seite empfehlen

Das Wetter in ...